sensor_id;sensor_type;location;lat;lon;timestamp;pressure;altitude;pressure_sealevel;temperature;humidity
69980;BME280;57318;56.232;43.944;2022-08-19T00:01:21;100130.50;;;17.03;59.45
69980;BME280;57318;56.232;43.944;2022-08-19T00:03:47;100125.44;;;17.00;59.40
69980;BME280;57318;56.232;43.944;2022-08-19T00:06:13;100128.56;;;16.95;59.36
69980;BME280;57318;56.232;43.944;2022-08-19T00:08:40;100135.75;;;16.94;59.22
69980;BME280;57318;56.232;43.944;2022-08-19T00:11:06;100131.00;;;16.88;59.19
69980;BME280;57318;56.232;43.944;2022-08-19T00:13:33;100131.16;;;16.87;58.94
69980;BME280;57318;56.232;43.944;2022-08-19T00:15:59;100134.09;;;16.84;59.05
69980;BME280;57318;56.232;43.944;2022-08-19T00:18:26;100143.56;;;16.78;59.18
69980;BME280;57318;56.232;43.944;2022-08-19T00:20:52;100141.31;;;16.73;59.59
69980;BME280;57318;56.232;43.944;2022-08-19T00:23:18;100142.19;;;16.64;59.68
69980;BME280;57318;56.232;43.944;2022-08-19T00:25:44;100144.47;;;16.59;59.90
69980;BME280;57318;56.232;43.944;2022-08-19T00:28:10;100149.56;;;16.52;60.26
69980;BME280;57318;56.232;43.944;2022-08-19T00:30:36;100156.03;;;16.50;60.40
69980;BME280;57318;56.232;43.944;2022-08-19T00:33:02;100151.53;;;16.40;60.67
69980;BME280;57318;56.232;43.944;2022-08-19T00:35:28;100155.66;;;16.35;60.82
69980;BME280;57318;56.232;43.944;2022-08-19T00:37:54;100163.25;;;16.30;60.88
69980;BME280;57318;56.232;43.944;2022-08-19T00:40:20;100159.19;;;16.26;60.90
69980;BME280;57318;56.232;43.944;2022-08-19T00:42:46;100161.00;;;16.15;61.02
69980;BME280;57318;56.232;43.944;2022-08-19T00:45:17;100161.16;;;16.14;60.92
69980;BME280;57318;56.232;43.944;2022-08-19T00:47:44;100174.16;;;16.09;61.05
69980;BME280;57318;56.232;43.944;2022-08-19T00:50:12;100167.34;;;16.04;60.99
69980;BME280;57318;56.232;43.944;2022-08-19T00:52:42;100161.56;;;15.99;61.02
69980;BME280;57318;56.232;43.944;2022-08-19T00:55:13;100167.78;;;15.90;61.21
69980;BME280;57318;56.232;43.944;2022-08-19T00:57:44;100163.53;;;15.87;61.17
69980;BME280;57318;56.232;43.944;2022-08-19T01:00:15;100173.28;;;15.88;61.06
69980;BME280;57318;56.232;43.944;2022-08-19T01:02:44;100177.34;;;15.83;61.10
69980;BME280;57318;56.232;43.944;2022-08-19T01:05:14;100173.97;;;15.81;61.26
69980;BME280;57318;56.232;43.944;2022-08-19T01:07:41;100184.97;;;15.78;61.06
69980;BME280;57318;56.232;43.944;2022-08-19T01:10:11;100177.78;;;15.78;61.03
69980;BME280;57318;56.232;43.944;2022-08-19T01:12:38;100181.69;;;15.74;61.11
69980;BME280;57318;56.232;43.944;2022-08-19T01:15:10;100186.34;;;15.72;61.12
69980;BME280;57318;56.232;43.944;2022-08-19T01:17:38;100187.72;;;15.66;61.14
69980;BME280;57318;56.232;43.944;2022-08-19T01:20:05;100188.84;;;15.64;61.33
69980;BME280;57318;56.232;43.944;2022-08-19T01:22:48;100189.25;;;15.59;61.50
69980;BME280;57318;56.232;43.944;2022-08-19T01:25:18;100185.88;;;15.57;61.31
69980;BME280;57318;56.232;43.944;2022-08-19T01:27:47;100185.72;;;15.49;61.58
69980;BME280;57318;56.232;43.944;2022-08-19T01:30:27;100189.22;;;15.49;61.37
69980;BME280;57318;56.232;43.944;2022-08-19T01:32:54;100184.75;;;15.50;61.24
69980;BME280;57318;56.232;43.944;2022-08-19T01:35:20;100184.75;;;15.50;61.10
69980;BME280;57318;56.232;43.944;2022-08-19T01:37:57;100184.00;;;15.48;61.05
69980;BME280;57318;56.232;43.944;2022-08-19T01:40:27;100187.78;;;15.36;61.42
69980;BME280;57318;56.232;43.944;2022-08-19T01:42:55;100190.44;;;15.36;61.44
69980;BME280;57318;56.232;43.944;2022-08-19T01:45:22;100197.38;;;15.38;61.03
69980;BME280;57318;56.232;43.944;2022-08-19T01:47:51;100199.06;;;15.39;60.85
69980;BME280;57318;56.232;43.944;2022-08-19T01:50:17;100197.38;;;15.38;60.88
69980;BME280;57318;56.232;43.944;2022-08-19T01:52:44;100204.09;;;15.32;60.41
69980;BME280;57318;56.232;43.944;2022-08-19T01:55:12;100204.97;;;15.33;60.57
69980;BME280;57318;56.232;43.944;2022-08-19T01:57:37;100211.44;;;15.30;60.74
69980;BME280;57318;56.232;43.944;2022-08-19T02:00:07;100220.03;;;15.34;60.58
69980;BME280;57318;56.232;43.944;2022-08-19T02:02:33;100215.41;;;15.36;60.61
69980;BME280;57318;56.232;43.944;2022-08-19T02:04:59;100214.53;;;15.36;60.58
69980;BME280;57318;56.232;43.944;2022-08-19T02:07:25;100204.97;;;15.33;60.51
69980;BME280;57318;56.232;43.944;2022-08-19T02:09:50;100211.69;;;15.27;60.75
69980;BME280;57318;56.232;43.944;2022-08-19T02:12:16;100220.69;;;15.26;60.93
69980;BME280;57318;56.232;43.944;2022-08-19T02:14:42;100220.13;;;15.23;61.11
69980;BME280;57318;56.232;43.944;2022-08-19T02:17:07;100221.84;;;15.24;61.21
69980;BME280;57318;56.232;43.944;2022-08-19T02:19:33;100221.56;;;15.27;60.94
69980;BME280;57318;56.232;43.944;2022-08-19T02:21:59;100217.59;;;15.21;60.79
69980;BME280;57318;56.232;43.944;2022-08-19T02:24:26;100209.41;;;15.23;60.55
69980;BME280;57318;56.232;43.944;2022-08-19T02:26:52;100213.81;;;15.24;60.38
69980;BME280;57318;56.232;43.944;2022-08-19T02:29:18;100213.69;;;15.25;60.12
69980;BME280;57318;56.232;43.944;2022-08-19T02:31:44;100217.91;;;15.28;60.31
69980;BME280;57318;56.232;43.944;2022-08-19T02:34:09;100221.31;;;15.30;60.14
69980;BME280;57318;56.232;43.944;2022-08-19T02:36:35;100222.00;;;15.32;60.00
69980;BME280;57318;56.232;43.944;2022-08-19T02:39:01;100227.53;;;15.40;59.47
69980;BME280;57318;56.232;43.944;2022-08-19T02:41:29;100244.47;;;15.41;59.37
69980;BME280;57318;56.232;43.944;2022-08-19T02:43:57;100239.69;;;15.44;59.32
69980;BME280;57318;56.232;43.944;2022-08-19T02:46:26;100238.56;;;15.47;59.07
69980;BME280;57318;56.232;43.944;2022-08-19T02:48:55;100235.75;;;15.48;59.03
69980;BME280;57318;56.232;43.944;2022-08-19T02:51:30;100238.97;;;15.42;59.22
69980;BME280;57318;56.232;43.944;2022-08-19T02:53:56;100246.47;;;15.48;59.21
69980;BME280;57318;56.232;43.944;2022-08-19T02:56:22;100254.06;;;15.53;59.04
69980;BME280;57318;56.232;43.944;2022-08-19T02:58:48;100256.22;;;15.59;58.90
69980;BME280;57318;56.232;43.944;2022-08-19T03:01:31;100246.50;;;15.58;58.96
69980;BME280;57318;56.232;43.944;2022-08-19T03:03:59;100252.44;;;15.62;58.83
69980;BME280;57318;56.232;43.944;2022-08-19T03:06:26;100261.19;;;15.64;58.80
69980;BME280;57318;56.232;43.944;2022-08-19T03:08:53;100264.00;;;15.62;58.95
69980;BME280;57318;56.232;43.944;2022-08-19T03:11:25;100267.97;;;15.68;58.69
69980;BME280;57318;56.232;43.944;2022-08-19T03:13:51;100272.22;;;15.70;58.56
69980;BME280;57318;56.232;43.944;2022-08-19T03:16:23;100274.50;;;15.75;58.55
69980;BME280;57318;56.232;43.944;2022-08-19T03:18:49;100275.22;;;15.77;58.38
69980;BME280;57318;56.232;43.944;2022-08-19T03:21:20;100274.50;;;15.75;58.54
69980;BME280;57318;56.232;43.944;2022-08-19T03:23:46;100273.38;;;15.78;58.63
69980;BME280;57318;56.232;43.944;2022-08-19T03:26:12;100275.94;;;15.79;58.50
69980;BME280;57318;56.232;43.944;2022-08-19T03:28:41;100277.53;;;15.92;58.31
69980;BME280;57318;56.232;43.944;2022-08-19T03:31:11;100285.56;;;15.92;58.18
69980;BME280;57318;56.232;43.944;2022-08-19T03:33:38;100292.34;;;15.96;58.36
69980;BME280;57318;56.232;43.944;2022-08-19T03:36:09;100297.72;;;15.96;58.20
69980;BME280;57318;56.232;43.944;2022-08-19T03:38:37;100287.28;;;16.02;58.16
69980;BME280;57318;56.232;43.944;2022-08-19T03:41:06;100289.69;;;16.05;57.88
69980;BME280;57318;56.232;43.944;2022-08-19T03:43:37;100290.56;;;16.16;57.67
69980;BME280;57318;56.232;43.944;2022-08-19T03:46:07;100288.88;;;16.24;57.34
69980;BME280;57318;56.232;43.944;2022-08-19T03:48:33;100295.69;;;16.29;57.15
69980;BME280;57318;56.232;43.944;2022-08-19T03:51:00;100293.28;;;16.35;56.98
69980;BME280;57318;56.232;43.944;2022-08-19T03:53:30;100293.00;;;16.38;56.87
69980;BME280;57318;56.232;43.944;2022-08-19T03:55:57;100303.72;;;16.48;56.91
69980;BME280;57318;56.232;43.944;2022-08-19T03:58:26;100295.69;;;16.48;57.20
69980;BME280;57318;56.232;43.944;2022-08-19T04:00:57;100297.13;;;16.52;56.70
69980;BME280;57318;56.232;43.944;2022-08-19T04:03:24;100301.47;;;16.63;56.25
69980;BME280;57318;56.232;43.944;2022-08-19T04:05:51;100300.91;;;16.59;56.44
69980;BME280;57318;56.232;43.944;2022-08-19T04:08:17;100302.34;;;16.64;56.38
69980;BME280;57318;56.232;43.944;2022-08-19T04:10:47;100309.53;;;16.73;55.91
69980;BME280;57318;56.232;43.944;2022-08-19T04:13:14;100308.97;;;16.79;55.41
69980;BME280;57318;56.232;43.944;2022-08-19T04:15:43;100309.13;;;16.87;55.23
69980;BME280;57318;56.232;43.944;2022-08-19T04:18:11;100314.78;;;16.94;55.05
69980;BME280;57318;56.232;43.944;2022-08-19T04:20:44;100316.22;;;16.88;55.12
69980;BME280;57318;56.232;43.944;2022-08-19T04:23:12;100321.72;;;16.87;54.86
69980;BME280;57318;56.232;43.944;2022-08-19T04:25:43;100327.22;;;16.95;54.88
69980;BME280;57318;56.232;43.944;2022-08-19T04:28:11;100325.81;;;16.91;55.00
69980;BME280;57318;56.232;43.944;2022-08-19T04:30:42;100334.56;;;16.93;54.86
69980;BME280;57318;56.232;43.944;2022-08-19T04:33:09;100334.25;;;16.96;54.79
69980;BME280;57318;56.232;43.944;2022-08-19T04:35:35;100335.13;;;17.06;54.50
69980;BME280;57318;56.232;43.944;2022-08-19T04:38:01;100334.13;;;17.17;54.21
69980;BME280;57318;56.232;43.944;2022-08-19T04:40:27;100338.06;;;17.33;53.98
69980;BME280;57318;56.232;43.944;2022-08-19T04:43:11;100325.81;;;17.48;53.47
69980;BME280;57318;56.232;43.944;2022-08-19T04:45:39;100331.88;;;17.60;53.09
69980;BME280;57318;56.232;43.944;2022-08-19T04:48:05;100335.56;;;17.68;52.83
69980;BME280;57318;56.232;43.944;2022-08-19T04:50:31;100339.50;;;17.64;52.65
69980;BME280;57318;56.232;43.944;2022-08-19T04:52:56;100344.16;;;17.72;52.28
69980;BME280;57318;56.232;43.944;2022-08-19T04:55:22;100342.16;;;17.74;52.41
69980;BME280;57318;56.232;43.944;2022-08-19T04:57:50;100346.94;;;17.90;51.49
69980;BME280;57318;56.232;43.944;2022-08-19T05:00:16;100351.81;;;18.04;51.21
69980;BME280;57318;56.232;43.944;2022-08-19T05:02:42;100352.03;;;18.21;51.00
69980;BME280;57318;56.232;43.944;2022-08-19T05:05:08;100344.34;;;18.26;50.68
69980;BME280;57318;56.232;43.944;2022-08-19T05:07:34;100349.34;;;18.21;49.79
69980;BME280;57318;56.232;43.944;2022-08-19T05:10:00;100351.81;;;18.32;49.32
69980;BME280;57318;56.232;43.944;2022-08-19T05:12:26;100350.31;;;18.48;49.28
69980;BME280;57318;56.232;43.944;2022-08-19T05:14:54;100349.63;;;18.46;49.33
69980;BME280;57318;56.232;43.944;2022-08-19T05:17:19;100351.00;;;18.50;49.05
69980;BME280;57318;56.232;43.944;2022-08-19T05:19:45;100350.91;;;18.60;48.99
69980;BME280;57318;56.232;43.944;2022-08-19T05:22:29;100355.66;;;18.75;48.84
69980;BME280;57318;56.232;43.944;2022-08-19T05:25:10;100354.56;;;18.86;48.76
69980;BME280;57318;56.232;43.944;2022-08-19T05:27:37;100364.44;;;18.96;48.00
69980;BME280;57318;56.232;43.944;2022-08-19T05:30:04;100357.28;;;19.04;47.87
69980;BME280;57318;56.232;43.944;2022-08-19T05:32:30;100355.03;;;19.00;47.70
69980;BME280;57318;56.232;43.944;2022-08-19T05:34:56;100352.88;;;19.03;47.75
69980;BME280;57318;56.232;43.944;2022-08-19T05:37:22;100355.00;;;19.18;47.26
69980;BME280;57318;56.232;43.944;2022-08-19T05:39:48;100361.72;;;19.14;47.51
69980;BME280;57318;56.232;43.944;2022-08-19T05:42:15;100359.09;;;19.22;47.25
69980;BME280;57318;56.232;43.944;2022-08-19T05:44:43;100367.94;;;19.32;47.02
69980;BME280;57318;56.232;43.944;2022-08-19T05:47:11;100362.38;;;19.60;46.14
69980;BME280;57318;56.232;43.944;2022-08-19T05:49:38;100374.72;;;19.62;46.02
69980;BME280;57318;56.232;43.944;2022-08-19T05:52:05;100375.72;;;19.61;45.79
69980;BME280;57318;56.232;43.944;2022-08-19T05:54:32;100376.88;;;19.85;45.55
69980;BME280;57318;56.232;43.944;2022-08-19T05:57:00;100387.06;;;19.99;45.10
69980;BME280;57318;56.232;43.944;2022-08-19T05:59:25;100379.13;;;19.98;44.76
69980;BME280;57318;56.232;43.944;2022-08-19T06:01:52;100387.94;;;20.00;45.16
69980;BME280;57318;56.232;43.944;2022-08-19T06:04:23;100387.16;;;20.16;44.69
69980;BME280;57318;56.232;43.944;2022-08-19T06:06:51;100399.09;;;20.05;44.73
69980;BME280;57318;56.232;43.944;2022-08-19T06:09:18;100423.47;;;20.22;43.49
69980;BME280;57318;56.232;43.944;2022-08-19T06:11:50;100406.47;;;20.37;43.81
69980;BME280;57318;56.232;43.944;2022-08-19T06:14:22;100415.06;;;20.33;43.77
69980;BME280;57318;56.232;43.944;2022-08-19T06:16:48;100418.84;;;20.48;43.31
69980;BME280;57318;56.232;43.944;2022-08-19T06:19:18;100412.81;;;20.63;43.61
69980;BME280;57318;56.232;43.944;2022-08-19T06:21:46;100418.94;;;20.81;43.30
69980;BME280;57318;56.232;43.944;2022-08-19T06:24:15;100416.13;;;21.07;42.93
69980;BME280;57318;56.232;43.944;2022-08-19T06:26:43;100415.97;;;21.50;41.34
69980;BME280;57318;56.232;43.944;2022-08-19T06:29:11;100421.03;;;22.74;38.79
69980;BME280;57318;56.232;43.944;2022-08-19T06:31:42;100420.31;;;24.17;35.02
69980;BME280;57318;56.232;43.944;2022-08-19T06:34:08;100425.69;;;25.35;33.13
69980;BME280;57318;56.232;43.944;2022-08-19T06:36:45;100428.25;;;26.90;30.30
69980;BME280;57318;56.232;43.944;2022-08-19T06:39:20;100428.53;;;27.88;28.60
69980;BME280;57318;56.232;43.944;2022-08-19T06:41:49;100432.06;;;29.13;26.70
69980;BME280;57318;56.232;43.944;2022-08-19T06:44:16;100439.00;;;30.35;25.37
69980;BME280;57318;56.232;43.944;2022-08-19T06:46:42;100429.03;;;30.89;24.42
69980;BME280;57318;56.232;43.944;2022-08-19T06:49:07;100437.19;;;31.50;22.97
69980;BME280;57318;56.232;43.944;2022-08-19T06:51:43;100450.19;;;33.19;21.78
69980;BME280;57318;56.232;43.944;2022-08-19T06:54:10;100450.16;;;34.87;19.55
69980;BME280;57318;56.232;43.944;2022-08-19T06:56:36;100446.84;;;35.17;18.50
69980;BME280;57318;56.232;43.944;2022-08-19T06:59:08;100446.63;;;36.47;17.21
69980;BME280;57318;56.232;43.944;2022-08-19T07:01:43;100451.31;;;37.35;16.33
69980;BME280;57318;56.232;43.944;2022-08-19T07:04:11;100448.06;;;38.40;14.98
69980;BME280;57318;56.232;43.944;2022-08-19T07:06:37;100440.97;;;38.73;14.71
69980;BME280;57318;56.232;43.944;2022-08-19T07:09:10;100440.19;;;39.07;13.76
69980;BME280;57318;56.232;43.944;2022-08-19T07:11:36;100445.88;;;38.26;14.50
69980;BME280;57318;56.232;43.944;2022-08-19T07:14:02;100447.06;;;38.05;14.60
69980;BME280;57318;56.232;43.944;2022-08-19T07:16:29;100447.28;;;38.29;15.05
69980;BME280;57318;56.232;43.944;2022-08-19T07:18:55;100451.22;;;39.23;14.19
69980;BME280;57318;56.232;43.944;2022-08-19T07:21:25;100448.50;;;39.12;13.48
69980;BME280;57318;56.232;43.944;2022-08-19T07:23:56;100450.03;;;38.89;13.72
69980;BME280;57318;56.232;43.944;2022-08-19T07:26:26;100436.16;;;39.63;13.24
69980;BME280;57318;56.232;43.944;2022-08-19T07:28:53;100454.34;;;40.09;13.07
69980;BME280;57318;56.232;43.944;2022-08-19T07:31:21;100445.09;;;39.84;11.76
69980;BME280;57318;56.232;43.944;2022-08-19T07:33:49;100443.16;;;39.85;12.66
69980;BME280;57318;56.232;43.944;2022-08-19T07:36:17;100446.78;;;39.85;12.61
69980;BME280;57318;56.232;43.944;2022-08-19T07:38:45;100454.63;;;39.78;12.47
69980;BME280;57318;56.232;43.944;2022-08-19T07:41:17;100450.78;;;38.55;12.67
69980;BME280;57318;56.232;43.944;2022-08-19T07:43:44;100459.34;;;39.48;12.34
69980;BME280;57318;56.232;43.944;2022-08-19T07:46:11;100454.13;;;39.42;12.72
69980;BME280;57318;56.232;43.944;2022-08-19T07:48:40;100438.78;;;39.44;12.10
69980;BME280;57318;56.232;43.944;2022-08-19T07:51:07;100449.41;;;39.03;12.60
69980;BME280;57318;56.232;43.944;2022-08-19T07:53:35;100449.63;;;38.61;12.98
69980;BME280;57318;56.232;43.944;2022-08-19T07:56:02;100450.13;;;39.19;12.62
69980;BME280;57318;56.232;43.944;2022-08-19T07:58:33;100447.47;;;40.01;11.28
69980;BME280;57318;56.232;43.944;2022-08-19T08:01:00;100458.44;;;39.87;11.89
69980;BME280;57318;56.232;43.944;2022-08-19T08:03:28;100454.06;;;40.73;11.19
69980;BME280;57318;56.232;43.944;2022-08-19T08:06:26;100462.34;;;40.78;10.81
69980;BME280;57318;56.232;43.944;2022-08-19T08:09:10;100469.91;;;40.97;10.32
69980;BME280;57318;56.232;43.944;2022-08-19T08:11:42;100470.44;;;40.12;10.80
69980;BME280;57318;56.232;43.944;2022-08-19T08:14:21;100460.59;;;40.20;11.24
69980;BME280;57318;56.232;43.944;2022-08-19T08:16:49;100464.28;;;40.15;11.11
69980;BME280;57318;56.232;43.944;2022-08-19T08:19:16;100470.88;;;41.06;10.70
69980;BME280;57318;56.232;43.944;2022-08-19T08:21:42;100463.56;;;41.62;10.53
69980;BME280;57318;56.232;43.944;2022-08-19T08:24:07;100466.44;;;41.76;10.14
69980;BME280;57318;56.232;43.944;2022-08-19T08:26:33;100473.06;;;41.09;10.60
69980;BME280;57318;56.232;43.944;2022-08-19T08:28:59;100474.53;;;42.47;9.81
69980;BME280;57318;56.232;43.944;2022-08-19T08:31:25;100471.84;;;42.28;10.00
69980;BME280;57318;56.232;43.944;2022-08-19T08:33:51;100475.09;;;42.71;9.40
69980;BME280;57318;56.232;43.944;2022-08-19T08:36:17;100485.69;;;42.47;9.79
69980;BME280;57318;56.232;43.944;2022-08-19T08:38:43;100457.00;;;41.72;9.92
69980;BME280;57318;56.232;43.944;2022-08-19T08:41:37;100476.25;;;41.87;9.80
69980;BME280;57318;56.232;43.944;2022-08-19T08:44:13;100456.19;;;41.99;9.42
69980;BME280;57318;56.232;43.944;2022-08-19T08:47:03;100473.16;;;43.08;8.79
69980;BME280;57318;56.232;43.944;2022-08-19T08:49:45;100470.47;;;43.71;8.16
69980;BME280;57318;56.232;43.944;2022-08-19T08:54:47;100478.63;;;45.14;7.31
69980;BME280;57318;56.232;43.944;2022-08-19T08:57:17;100486.66;;;44.72;7.51
69980;BME280;57318;56.232;43.944;2022-08-19T08:59:47;100471.31;;;45.31;7.62
69980;BME280;57318;56.232;43.944;2022-08-19T09:02:18;100479.34;;;45.85;7.03
69980;BME280;57318;56.232;43.944;2022-08-19T09:04:44;100471.16;;;45.45;7.42
69980;BME280;57318;56.232;43.944;2022-08-19T09:10:14;100476.47;;;44.94;6.99
69980;BME280;57318;56.232;43.944;2022-08-19T09:13:18;100470.28;;;44.39;7.08
69980;BME280;57318;56.232;43.944;2022-08-19T09:15:58;100468.81;;;44.02;7.68
69980;BME280;57318;56.232;43.944;2022-08-19T09:21:06;100459.72;;;44.36;7.62
69980;BME280;57318;56.232;43.944;2022-08-19T09:23:37;100470.41;;;43.85;7.37
69980;BME280;57318;56.232;43.944;2022-08-19T09:26:23;100461.31;;;43.79;6.94
69980;BME280;57318;56.232;43.944;2022-08-19T09:28:51;100479.31;;;43.65;7.77
69980;BME280;57318;56.232;43.944;2022-08-19T09:31:23;100455.13;;;43.15;7.28
69980;BME280;57318;56.232;43.944;2022-08-19T09:33:50;100470.69;;;42.93;8.10
69980;BME280;57318;56.232;43.944;2022-08-19T09:36:18;100461.53;;;43.38;7.36
69980;BME280;57318;56.232;43.944;2022-08-19T09:38:45;100466.91;;;43.79;7.14
69980;BME280;57318;56.232;43.944;2022-08-19T09:41:16;100461.25;;;44.02;7.69
69980;BME280;57318;56.232;43.944;2022-08-19T09:43:46;100456.69;;;43.30;7.99
69980;BME280;57318;56.232;43.944;2022-08-19T09:46:12;100456.88;;;43.33;7.61
69980;BME280;57318;56.232;43.944;2022-08-19T09:48:39;100445.22;;;42.95;7.65
69980;BME280;57318;56.232;43.944;2022-08-19T09:51:08;100464.81;;;42.81;8.05
69980;BME280;57318;56.232;43.944;2022-08-19T09:53:35;100465.09;;;43.07;7.62
69980;BME280;57318;56.232;43.944;2022-08-19T09:56:02;100459.59;;;44.10;7.50
69980;BME280;57318;56.232;43.944;2022-08-19T09:58:28;100465.97;;;44.33;6.92
69980;BME280;57318;56.232;43.944;2022-08-19T10:00:55;100457.44;;;44.47;6.11
69980;BME280;57318;56.232;43.944;2022-08-19T10:03:22;100461.94;;;44.74;5.64
69980;BME280;57318;56.232;43.944;2022-08-19T10:05:48;100462.50;;;44.36;5.67
69980;BME280;57318;56.232;43.944;2022-08-19T10:08:16;100459.75;;;43.42;6.06
69980;BME280;57318;56.232;43.944;2022-08-19T10:10:43;100460.56;;;42.97;6.38
69980;BME280;57318;56.232;43.944;2022-08-19T10:13:10;100452.72;;;44.16;6.08
69980;BME280;57318;56.232;43.944;2022-08-19T10:15:36;100458.16;;;44.70;5.66
69980;BME280;57318;56.232;43.944;2022-08-19T10:18:05;100460.63;;;44.89;5.74
69980;BME280;57318;56.232;43.944;2022-08-19T10:20:31;100472.75;;;44.41;6.01
69980;BME280;57318;56.232;43.944;2022-08-19T10:22:56;100443.66;;;43.25;6.06
69980;BME280;57318;56.232;43.944;2022-08-19T10:25:24;100460.66;;;43.29;6.40
69980;BME280;57318;56.232;43.944;2022-08-19T10:27:52;100457.38;;;43.89;5.32
69980;BME280;57318;56.232;43.944;2022-08-19T10:30:18;100464.53;;;43.73;5.01
69980;BME280;57318;56.232;43.944;2022-08-19T10:32:44;100467.44;;;43.36;5.61
69980;BME280;57318;56.232;43.944;2022-08-19T10:35:12;100463.72;;;42.54;6.33
69980;BME280;57318;56.232;43.944;2022-08-19T10:37:38;100455.78;;;42.33;6.40
69980;BME280;57318;56.232;43.944;2022-08-19T10:40:08;100483.97;;;43.24;6.05
69980;BME280;57318;56.232;43.944;2022-08-19T10:42:35;100469.75;;;42.33;5.92
69980;BME280;57318;56.232;43.944;2022-08-19T10:45:04;100465.84;;;42.62;6.01
69980;BME280;57318;56.232;43.944;2022-08-19T10:47:32;100486.78;;;42.87;6.46
69980;BME280;57318;56.232;43.944;2022-08-19T10:49:58;100480.16;;;42.97;5.82
69980;BME280;57318;56.232;43.944;2022-08-19T10:52:47;100468.94;;;42.47;5.96
69980;BME280;57318;56.232;43.944;2022-08-19T10:55:13;100485.78;;;42.00;6.27
69980;BME280;57318;56.232;43.944;2022-08-19T10:57:57;100486.63;;;42.14;6.29
69980;BME280;57318;56.232;43.944;2022-08-19T11:00:24;100487.38;;;42.20;6.53
69980;BME280;57318;56.232;43.944;2022-08-19T11:02:50;100488.06;;;42.40;6.18
69980;BME280;57318;56.232;43.944;2022-08-19T11:05:17;100474.34;;;42.29;6.20
69980;BME280;57318;56.232;43.944;2022-08-19T11:07:43;100478.59;;;42.91;6.06
69980;BME280;57318;56.232;43.944;2022-08-19T11:10:12;100487.09;;;43.68;5.97
69980;BME280;57318;56.232;43.944;2022-08-19T11:12:40;100483.19;;;43.32;6.11
69980;BME280;57318;56.232;43.944;2022-08-19T11:15:07;100471.88;;;43.15;5.96
69980;BME280;57318;56.232;43.944;2022-08-19T11:17:39;100482.06;;;42.97;6.31
69980;BME280;57318;56.232;43.944;2022-08-19T11:20:10;100476.13;;;42.76;6.32
69980;BME280;57318;56.232;43.944;2022-08-19T11:22:38;100472.25;;;42.21;6.68
69980;BME280;57318;56.232;43.944;2022-08-19T11:25:04;100469.06;;;41.34;6.80
69980;BME280;57318;56.232;43.944;2022-08-19T11:27:30;100466.31;;;40.96;7.65
69980;BME280;57318;56.232;43.944;2022-08-19T11:29:56;100476.84;;;40.99;7.55
69980;BME280;57318;56.232;43.944;2022-08-19T11:32:21;100480.22;;;40.77;7.43
69980;BME280;57318;56.232;43.944;2022-08-19T11:34:47;100475.09;;;41.22;7.21
69980;BME280;57318;56.232;43.944;2022-08-19T11:37:13;100474.78;;;41.90;6.82
69980;BME280;57318;56.232;43.944;2022-08-19T11:39:39;100475.25;;;42.25;7.16
69980;BME280;57318;56.232;43.944;2022-08-19T11:42:05;100481.75;;;42.48;7.05
69980;BME280;57318;56.232;43.944;2022-08-19T11:44:52;100472.22;;;42.77;6.74
69980;BME280;57318;56.232;43.944;2022-08-19T11:47:17;100490.31;;;42.10;7.12
69980;BME280;57318;56.232;43.944;2022-08-19T11:49:43;100476.31;;;41.68;7.80
69980;BME280;57318;56.232;43.944;2022-08-19T11:52:09;100488.19;;;42.34;7.43
69980;BME280;57318;56.232;43.944;2022-08-19T11:54:36;100487.03;;;42.63;6.85
69980;BME280;57318;56.232;43.944;2022-08-19T11:57:02;100482.53;;;42.76;7.24
69980;BME280;57318;56.232;43.944;2022-08-19T11:59:29;100477.41;;;42.42;7.27
69980;BME280;57318;56.232;43.944;2022-08-19T12:01:55;100480.47;;;42.82;7.32
69980;BME280;57318;56.232;43.944;2022-08-19T12:04:21;100478.25;;;42.56;7.39
69980;BME280;57318;56.232;43.944;2022-08-19T12:06:47;100474.53;;;42.19;7.67
69980;BME280;57318;56.232;43.944;2022-08-19T12:09:13;100480.19;;;42.42;7.60
69980;BME280;57318;56.232;43.944;2022-08-19T12:11:40;100477.34;;;42.83;7.82
69980;BME280;57318;56.232;43.944;2022-08-19T12:14:09;100481.72;;;42.76;7.86
69980;BME280;57318;56.232;43.944;2022-08-19T12:16:35;100483.53;;;42.30;7.66
69980;BME280;57318;56.232;43.944;2022-08-19T12:19:03;100485.56;;;42.80;7.33
69980;BME280;57318;56.232;43.944;2022-08-19T12:21:31;100485.25;;;42.53;7.69
69980;BME280;57318;56.232;43.944;2022-08-19T12:23:58;100490.63;;;42.78;7.71
69980;BME280;57318;56.232;43.944;2022-08-19T12:26:26;100484.63;;;41.02;8.72
69980;BME280;57318;56.232;43.944;2022-08-19T12:28:53;100487.97;;;41.18;8.62
69980;BME280;57318;56.232;43.944;2022-08-19T12:31:19;100480.13;;;40.63;9.20
69980;BME280;57318;56.232;43.944;2022-08-19T12:33:45;100500.25;;;41.17;8.66
69980;BME280;57318;56.232;43.944;2022-08-19T12:36:13;100499.16;;;40.99;9.12
69980;BME280;57318;56.232;43.944;2022-08-19T12:38:40;100490.56;;;41.66;8.53
69980;BME280;57318;56.232;43.944;2022-08-19T12:41:09;100487.84;;;41.61;8.79
69980;BME280;57318;56.232;43.944;2022-08-19T12:43:36;100486.28;;;41.74;8.67
69980;BME280;57318;56.232;43.944;2022-08-19T12:46:06;100489.88;;;41.23;8.97
69980;BME280;57318;56.232;43.944;2022-08-19T12:48:33;100479.53;;;41.23;8.87
69980;BME280;57318;56.232;43.944;2022-08-19T12:50:58;100487.47;;;41.16;9.01
69980;BME280;57318;56.232;43.944;2022-08-19T12:53:24;100479.78;;;41.08;8.66
69980;BME280;57318;56.232;43.944;2022-08-19T12:55:57;100481.38;;;40.95;9.08
69980;BME280;57318;56.232;43.944;2022-08-19T12:58:25;100476.06;;;41.12;9.28